Dale, TX (78616)

1:44 PM CST on January 25, 2015 (GMT -0600)
Lytton Springs | Change Station
CLOSE
Current Station
Personal Weather Station
Location: Dale, TX
Elevation: 604 ft
Nearby Weather Stations

Elev 604 ft 30.00 °N, 97.61 °W | Updated 14 minutes ago

Partly Cloudy
Partly Cloudy
70.9 °F
Feels Like 77 °F
N
3.1
Wind Variable Wind from NNW

Today
High -- | Low -- °F
--% Chance of Precip.
Yesterday
High -- | Low -- °F
Precip. -- in
7:24 AM 6:01 PM
Waxing Crescent, 35% visible
Pressure 30.09 in
Visibility 10.0 miles
Clouds Few 15000 ft
Mostly Cloudy 25000 ft
Heat Index 77 °F
Dew Point 45 °F
Humidity 40%
Rainfall 0.00 in
Snow Depth Not available.
UV 3 out of 12
Pollen 6.20 out of 12
Air Quality Not available.
Flu Activity Not available.
METAR KAUS 251853Z 35009KT 10SM FEW150 BKN250 21/05 A3010 RMK AO2 SLP190 T02060050

More Conditions Fewer Conditions

Pressure 30.09 in
Visibility 10.0 miles
Clouds Few 15000 ft
Mostly Cloudy 25000 ft
Heat Index 77 °F
Dew Point 45 °F
Humidity 40%
Rainfall 0.00 in
Snow Depth Not available.
UV 3 out of 12
Pollen 6.20 out of 12
Air Quality Not available.
Flu Activity Not available.
METAR KAUS 251853Z 35009KT 10SM FEW150 BKN250 21/05 A3010 RMK AO2 SLP190 T02060050

More Conditions Fewer Conditions

10-Day Weather Forecast

Almanac

Astronomy

Jan. 25, 2015 Rise Set
Actual Time
Civil Twilight
Nautical Twilight
Astronomical Twilight
Moon
Length of Visible Light
Length of Day
Tomorrow will be .
, % of the Moon is Illuminated

Today's Extremes

State Highs State Lows

Community

WunderPhotos

Upload Photos

1,790,030 photos uploaded!

WunderBlogs® & News

Nearby

Air Quality

  Air Quality AQ Index Pollutant
Not available.

Snow Depth

Station Depth Elevation

Earthquake Activity

City Distance Mag. Time & Date
Minimum magnitude displayed is 2.5.

Coastal Water Temperatures

Place Temperature

Nearby Weather Stations